createdAt,value
2023-05-16T00:00:43.675Z,2.47
2023-05-16T00:03:12.345Z,2.33
2023-05-16T00:05:39.405Z,2.50
2023-05-16T00:08:06.515Z,2.83
2023-05-16T00:10:33.725Z,2.30
2023-05-16T00:13:01.929Z,3.63
2023-05-16T00:15:32.776Z,2.77
2023-05-16T00:18:00.202Z,3.47
2023-05-16T00:20:28.742Z,2.60
2023-05-16T00:22:56.138Z,3.37
2023-05-16T00:25:24.048Z,2.87
2023-05-16T00:27:50.970Z,3.63
2023-05-16T00:30:18.317Z,3.17
2023-05-16T00:32:45.526Z,3.37
2023-05-16T00:35:12.568Z,2.70
2023-05-16T00:37:40.121Z,2.67
2023-05-16T00:40:07.998Z,2.53
2023-05-16T00:42:34.936Z,2.70
2023-05-16T00:45:01.861Z,2.13
2023-05-16T00:47:28.940Z,2.93
2023-05-16T00:49:56.466Z,2.50
2023-05-16T00:52:23.953Z,2.60
2023-05-16T00:54:52.358Z,3.10
2023-05-16T00:57:19.586Z,2.93
2023-05-16T00:59:47.700Z,2.73
2023-05-16T01:02:18.065Z,2.80
2023-05-16T01:04:45.918Z,3.03
2023-05-16T01:07:12.807Z,2.50
2023-05-16T01:09:40.193Z,2.60
2023-05-16T01:12:32.748Z,2.70
2023-05-16T01:15:12.976Z,2.30
2023-05-16T01:18:11.329Z,2.20
2023-05-16T01:20:57.038Z,2.30
2023-05-16T01:24:09.849Z,2.57
2023-05-16T01:26:37.820Z,2.50
2023-05-16T01:29:05.858Z,2.30
2023-05-16T01:31:32.917Z,2.00
2023-05-16T01:34:00.062Z,2.30
2023-05-16T01:37:01.106Z,2.43
2023-05-16T01:39:53.126Z,2.63
2023-05-16T01:42:24.856Z,2.00
2023-05-16T01:45:13.712Z,2.70
2023-05-16T01:47:45.463Z,2.80
2023-05-16T01:50:22.454Z,2.60
2023-05-16T01:53:06.904Z,2.60
2023-05-16T01:55:44.419Z,2.87
2023-05-16T01:58:12.848Z,2.40
2023-05-16T02:00:41.354Z,2.57
2023-05-16T02:03:09.618Z,2.70
2023-05-16T02:05:36.656Z,2.50
2023-05-16T02:08:04.490Z,2.43
2023-05-16T02:10:31.560Z,3.10
2023-05-16T02:12:58.532Z,3.00
2023-05-16T02:15:25.553Z,3.70
2023-05-16T02:17:52.768Z,2.83
2023-05-16T02:20:19.726Z,3.00
2023-05-16T02:22:47.542Z,3.27
2023-05-16T02:25:16.333Z,2.57
2023-05-16T02:27:43.720Z,3.20
2023-05-16T02:30:13.967Z,3.03
2023-05-16T02:32:41.571Z,2.50
2023-05-16T02:35:08.815Z,2.27
2023-05-16T02:37:35.887Z,2.93
2023-05-16T02:40:05.806Z,2.77
2023-05-16T02:42:33.005Z,3.23
2023-05-16T02:45:00.084Z,2.70
2023-05-16T02:47:27.191Z,2.90
2023-05-16T02:49:54.231Z,2.80
2023-05-16T02:52:21.557Z,3.60
2023-05-16T02:54:59.829Z,2.70
2023-05-16T02:57:35.446Z,3.20
2023-05-16T03:00:02.470Z,3.43
2023-05-16T03:02:29.534Z,3.27
2023-05-16T03:04:56.680Z,2.93
2023-05-16T03:07:23.598Z,2.80
2023-05-16T03:09:50.543Z,2.70
2023-05-16T03:12:17.761Z,3.20
2023-05-16T03:14:45.356Z,3.00
2023-05-16T03:17:12.274Z,2.70
2023-05-16T03:19:39.513Z,2.80
2023-05-16T03:22:06.446Z,2.97
2023-05-16T03:24:33.433Z,3.30
2023-05-16T03:27:00.653Z,3.30
2023-05-16T03:29:27.603Z,2.77
2023-05-16T03:31:55.170Z,3.27
2023-05-16T03:34:22.751Z,2.80
2023-05-16T03:36:50.279Z,3.07
2023-05-16T03:39:17.586Z,2.97
2023-05-16T03:41:44.741Z,3.10
2023-05-16T03:44:11.656Z,3.40
2023-05-16T03:46:38.587Z,3.10
2023-05-16T03:49:05.716Z,3.27
2023-05-16T03:51:33.347Z,3.00
2023-05-16T03:54:00.285Z,3.27
2023-05-16T03:56:27.321Z,3.87
2023-05-16T03:58:54.484Z,2.83
2023-05-16T04:01:21.542Z,3.20
2023-05-16T04:03:48.483Z,3.37
2023-05-16T04:06:15.420Z,2.60
2023-05-16T04:08:44.935Z,4.00
2023-05-16T04:11:12.292Z,2.80
2023-05-16T04:13:39.444Z,3.27
2023-05-16T04:16:07.495Z,3.23
2023-05-16T04:18:34.860Z,3.47
2023-05-16T04:21:01.901Z,3.37
2023-05-16T04:23:28.868Z,3.83
2023-05-16T04:25:56.985Z,3.27
2023-05-16T04:28:23.978Z,3.40
2023-05-16T04:30:51.367Z,3.47
2023-05-16T04:33:18.852Z,2.90
2023-05-16T04:35:45.797Z,3.47
2023-05-16T04:38:12.709Z,3.47
2023-05-16T04:40:41.785Z,3.40
2023-05-16T04:43:08.775Z,2.97
2023-05-16T04:45:37.951Z,3.20
2023-05-16T04:48:05.286Z,3.00
2023-05-16T04:50:32.356Z,3.30
2023-05-16T04:52:59.332Z,3.03
2023-05-16T04:55:26.700Z,3.30
2023-05-16T04:57:53.869Z,3.10
2023-05-16T05:00:21.300Z,2.90
2023-05-16T05:02:48.427Z,3.20
2023-05-16T05:05:15.651Z,2.80
2023-05-16T05:07:43.236Z,3.10
2023-05-16T05:10:10.931Z,3.13
2023-05-16T05:12:37.944Z,3.37
2023-05-16T05:15:06.515Z,2.90
2023-05-16T05:17:33.686Z,3.10
2023-05-16T05:20:02.963Z,3.40
2023-05-16T05:22:30.372Z,3.30
2023-05-16T05:24:57.300Z,3.50
2023-05-16T05:27:25.409Z,3.87
2023-05-16T05:29:52.374Z,3.33
2023-05-16T05:32:19.281Z,3.13
2023-05-16T05:34:46.213Z,2.93
2023-05-16T05:37:14.560Z,4.33
2023-05-16T05:39:41.504Z,3.70
2023-05-16T05:42:08.499Z,4.30
2023-05-16T05:44:35.431Z,3.70
2023-05-16T05:47:02.417Z,3.60
2023-05-16T05:49:29.618Z,3.60
2023-05-16T05:51:56.667Z,3.57
2023-05-16T05:54:24.344Z,3.90
2023-05-16T05:56:51.293Z,3.50
2023-05-16T05:59:18.235Z,3.37
2023-05-16T06:01:45.380Z,3.60
2023-05-16T06:04:12.358Z,3.13
2023-05-16T06:06:40.178Z,3.27
2023-05-16T06:09:07.284Z,3.20
2023-05-16T06:11:34.334Z,2.63
2023-05-16T06:14:01.325Z,3.10
2023-05-16T06:16:28.271Z,2.93
2023-05-16T06:18:55.238Z,2.93
2023-05-16T06:21:22.315Z,2.90
2023-05-16T06:23:49.477Z,2.57
2023-05-16T06:26:16.469Z,2.60
2023-05-16T06:28:43.482Z,2.77
2023-05-16T06:31:10.565Z,2.77
2023-05-16T06:33:37.567Z,2.50
2023-05-16T06:36:04.746Z,2.50
2023-05-16T06:38:31.725Z,2.27
2023-05-16T06:40:58.668Z,2.47
2023-05-16T06:43:25.761Z,2.57
2023-05-16T06:45:52.739Z,2.23
2023-05-16T06:48:19.897Z,1.83
2023-05-16T06:50:52.107Z,2.67
2023-05-16T06:53:19.743Z,2.40
2023-05-16T06:55:47.633Z,2.23
2023-05-16T06:58:14.736Z,2.00
2023-05-16T07:00:42.075Z,2.07
2023-05-16T07:03:09.164Z,2.27
2023-05-16T07:05:37.327Z,1.77
2023-05-16T07:08:07.070Z,2.10
2023-05-16T07:10:34.822Z,1.90
2023-05-16T07:13:02.349Z,2.80
2023-05-16T07:15:29.533Z,1.90
2023-05-16T07:17:57.417Z,1.90
2023-05-16T07:20:25.012Z,1.80
2023-05-16T07:22:52.105Z,1.93
2023-05-16T07:25:19.099Z,1.97
2023-05-16T07:27:46.139Z,2.07
2023-05-16T07:30:14.545Z,2.10
2023-05-16T07:32:41.773Z,1.77
2023-05-16T07:35:09.688Z,1.50
2023-05-16T07:37:36.874Z,1.43
2023-05-16T07:40:04.324Z,1.70
2023-05-16T07:42:31.842Z,1.45
2023-05-16T07:44:58.774Z,1.43
2023-05-16T07:47:25.940Z,1.47
2023-05-16T07:49:53.060Z,1.48
2023-05-16T07:52:20.491Z,1.40
2023-05-16T07:54:47.770Z,1.33
2023-05-16T07:57:16.338Z,1.40
2023-05-16T07:59:44.832Z,1.50
2023-05-16T08:02:12.153Z,1.30
2023-05-16T08:04:39.553Z,1.83
2023-05-16T08:07:06.485Z,1.30
2023-05-16T08:09:33.466Z,1.65
2023-05-16T08:12:03.661Z,1.10
2023-05-16T08:14:32.573Z,1.33
2023-05-16T08:17:00.629Z,1.38
2023-05-16T08:19:28.032Z,1.27
2023-05-16T08:21:55.186Z,1.75
2023-05-16T08:24:22.286Z,1.63
2023-05-16T08:26:49.255Z,1.20
2023-05-16T08:29:16.442Z,1.20
2023-05-16T08:31:43.703Z,1.30
2023-05-16T08:34:10.669Z,1.60
2023-05-16T08:36:38.183Z,1.25
2023-05-16T08:39:05.361Z,1.17
2023-05-16T08:41:32.347Z,1.50
2023-05-16T08:43:59.562Z,1.20
2023-05-16T08:46:28.825Z,1.70
2023-05-16T08:49:03.316Z,1.65
2023-05-16T08:51:36.918Z,1.48
2023-05-16T08:54:07.288Z,1.50
2023-05-16T08:56:35.164Z,1.42
2023-05-16T08:59:03.067Z,1.05
2023-05-16T09:01:32.429Z,1.60
2023-05-16T09:04:00.915Z,1.50
2023-05-16T09:06:28.413Z,1.50
2023-05-16T09:08:55.627Z,1.40
2023-05-16T09:11:22.699Z,1.48
2023-05-16T09:13:50.026Z,1.25
2023-05-16T09:16:21.145Z,1.20
2023-05-16T09:18:59.957Z,1.42
2023-05-16T09:21:33.077Z,1.30
2023-05-16T09:24:05.903Z,0.90
2023-05-16T09:26:38.609Z,1.42
2023-05-16T09:29:14.722Z,1.42
2023-05-16T09:31:41.942Z,1.50
2023-05-16T09:34:11.316Z,1.27
2023-05-16T09:36:38.554Z,1.17
2023-05-16T09:39:07.651Z,1.42
2023-05-16T09:41:35.847Z,1.42
2023-05-16T09:44:09.024Z,1.48
2023-05-16T09:46:38.216Z,1.17
2023-05-16T09:49:05.294Z,1.25
2023-05-16T09:51:32.452Z,1.42
2023-05-16T09:54:00.521Z,1.33
2023-05-16T09:56:27.590Z,1.63
2023-05-16T09:58:54.609Z,1.10
2023-05-16T10:01:21.684Z,1.20
2023-05-16T10:03:48.854Z,1.15
2023-05-16T10:06:17.216Z,1.30
2023-05-16T10:08:44.419Z,1.30
2023-05-16T10:13:40.589Z,1.40
2023-05-16T10:16:14.197Z,1.55
2023-05-16T10:18:42.812Z,1.30
2023-05-16T10:21:15.674Z,1.05
2023-05-16T10:23:44.659Z,1.40
2023-05-16T10:26:14.876Z,1.20
2023-05-16T10:28:42.606Z,1.15
2023-05-16T10:31:13.084Z,1.38
2023-05-16T10:33:40.920Z,1.42
2023-05-16T10:36:12.025Z,1.10
2023-05-16T10:38:40.376Z,1.30
2023-05-16T10:41:08.156Z,1.50
2023-05-16T10:43:35.157Z,1.42
2023-05-16T10:46:11.581Z,1.30
2023-05-16T10:48:40.835Z,1.20
2023-05-16T10:51:22.931Z,1.33
2023-05-16T10:53:54.946Z,1.20
2023-05-16T10:56:28.692Z,0.98
2023-05-16T10:58:56.864Z,1.10
2023-05-16T11:01:32.613Z,1.20
2023-05-16T11:04:02.530Z,1.13
2023-05-16T11:06:42.939Z,1.00
2023-05-16T11:09:13.745Z,1.40
2023-05-16T11:12:03.577Z,1.17
2023-05-16T11:14:42.482Z,1.40
2023-05-16T11:17:14.750Z,1.20
2023-05-16T11:19:52.471Z,1.10
2023-05-16T11:22:19.393Z,1.00
2023-05-16T11:24:57.107Z,1.10
2023-05-16T11:27:31.255Z,1.55
2023-05-16T11:30:05.671Z,1.23
2023-05-16T11:32:40.160Z,1.50
2023-05-16T11:35:12.141Z,1.30
2023-05-16T11:37:40.877Z,1.33
2023-05-16T11:40:11.479Z,0.93
2023-05-16T11:42:50.338Z,1.30
2023-05-16T11:45:21.426Z,1.00
2023-05-16T11:47:49.862Z,1.20
2023-05-16T11:50:20.288Z,1.73
2023-05-16T11:52:57.552Z,1.27
2023-05-16T11:55:41.800Z,1.10
2023-05-16T11:58:10.345Z,1.30
2023-05-16T12:00:37.368Z,1.38
2023-05-16T12:03:06.468Z,1.05
2023-05-16T12:05:35.296Z,1.35
2023-05-16T12:08:05.579Z,1.25
2023-05-16T12:10:34.914Z,1.20
2023-05-16T12:13:03.558Z,1.08
2023-05-16T12:15:31.062Z,1.00
2023-05-16T12:17:58.755Z,1.00
2023-05-16T12:20:26.254Z,1.08
2023-05-16T12:22:53.383Z,1.23
2023-05-16T12:25:29.119Z,1.23
2023-05-16T12:28:02.073Z,1.17
2023-05-16T12:30:31.530Z,1.00
2023-05-16T12:33:00.292Z,1.20
2023-05-16T12:35:32.245Z,1.45
2023-05-16T12:38:01.134Z,1.10
2023-05-16T12:40:31.489Z,0.90
2023-05-16T12:42:58.730Z,1.10
2023-05-16T12:45:29.274Z,1.20
2023-05-16T12:47:56.282Z,0.88
2023-05-16T12:50:23.399Z,1.10
2023-05-16T12:52:54.857Z,1.02
2023-05-16T12:55:23.005Z,1.10
2023-05-16T12:57:51.772Z,1.13
2023-05-16T13:00:20.910Z,1.05
2023-05-16T13:02:49.078Z,1.10
2023-05-16T13:05:17.947Z,1.08
2023-05-16T13:07:45.104Z,1.20
2023-05-16T13:10:12.743Z,0.90
2023-05-16T13:12:41.175Z,0.98
2023-05-16T13:15:10.507Z,0.95
2023-05-16T13:17:39.148Z,1.20
2023-05-16T13:20:11.745Z,1.30
2023-05-16T13:22:39.839Z,1.10
2023-05-16T13:25:08.323Z,0.90
2023-05-16T13:27:35.860Z,0.90
2023-05-16T13:30:04.407Z,1.42
2023-05-16T13:32:31.502Z,1.10
2023-05-16T13:34:58.468Z,0.95
2023-05-16T13:37:25.774Z,0.82
2023-05-16T13:39:54.741Z,0.95
2023-05-16T13:42:22.425Z,1.30
2023-05-16T13:44:49.816Z,1.27
2023-05-16T13:47:16.968Z,1.42
2023-05-16T13:49:44.106Z,0.90
2023-05-16T13:52:11.343Z,1.00
2023-05-16T13:54:40.470Z,1.10
2023-05-16T13:57:07.788Z,1.17
2023-05-16T14:02:06.297Z,1.10
2023-05-16T14:04:33.320Z,0.77
2023-05-16T14:07:00.433Z,1.10
2023-05-16T14:09:27.392Z,1.00
2023-05-16T14:11:54.476Z,0.90
2023-05-16T14:14:21.571Z,1.00
2023-05-16T14:16:48.642Z,1.20
2023-05-16T14:19:18.863Z,1.20
2023-05-16T14:21:46.206Z,1.02
2023-05-16T14:24:13.199Z,1.05
2023-05-16T14:26:40.878Z,1.00
2023-05-16T14:29:07.862Z,0.95
2023-05-16T14:31:36.533Z,0.90
2023-05-16T14:34:04.185Z,0.88
2023-05-16T14:36:31.889Z,0.98
2023-05-16T14:38:59.169Z,0.70
2023-05-16T14:41:26.673Z,1.55
2023-05-16T14:43:53.634Z,1.60
2023-05-16T14:46:20.821Z,0.70
2023-05-16T14:48:47.818Z,1.20
2023-05-16T14:51:15.229Z,1.98
2023-05-16T14:53:42.522Z,1.00
2023-05-16T14:56:10.374Z,1.08
2023-05-16T14:58:37.557Z,0.88
2023-05-16T15:01:05.673Z,0.82
2023-05-16T15:03:43.231Z,1.00
2023-05-16T15:06:14.216Z,1.05
2023-05-16T15:08:41.552Z,1.00
2023-05-16T15:11:08.527Z,0.80
2023-05-16T15:13:35.598Z,1.20
2023-05-16T15:16:02.562Z,0.90
2023-05-16T15:18:29.568Z,0.90
2023-05-16T15:20:56.706Z,1.67
2023-05-16T15:23:23.654Z,4.25
2023-05-16T15:25:52.297Z,6.70
2023-05-16T15:28:21.754Z,5.28
2023-05-16T15:30:51.391Z,3.47
2023-05-16T15:33:18.479Z,1.52
2023-05-16T15:35:45.861Z,1.90
2023-05-16T15:38:13.152Z,1.13
2023-05-16T15:40:40.110Z,1.10
2023-05-16T15:43:07.194Z,1.08
2023-05-16T15:45:34.343Z,1.27
2023-05-16T15:48:02.002Z,1.00
2023-05-16T15:50:29.030Z,0.90
2023-05-16T15:52:58.268Z,0.90
2023-05-16T15:55:25.752Z,1.27
2023-05-16T15:57:57.013Z,1.20
2023-05-16T16:00:24.957Z,1.10
2023-05-16T16:02:52.716Z,0.80
2023-05-16T16:05:19.757Z,1.10
2023-05-16T16:07:46.665Z,0.90
2023-05-16T16:10:13.717Z,0.93
2023-05-16T16:12:40.746Z,0.90
2023-05-16T16:15:10.051Z,0.95
2023-05-16T16:17:37.431Z,0.88
2023-05-16T16:20:04.961Z,1.30
2023-05-16T16:22:31.954Z,1.10
2023-05-16T16:24:58.941Z,1.10
2023-05-16T16:27:25.953Z,1.50
2023-05-16T16:29:52.924Z,1.10
2023-05-16T16:32:19.837Z,0.93
2023-05-16T16:34:46.745Z,0.90
2023-05-16T16:37:13.745Z,1.10
2023-05-16T16:39:40.746Z,1.20
2023-05-16T16:42:07.946Z,1.25
2023-05-16T16:44:34.941Z,0.98
2023-05-16T16:47:02.303Z,1.15
2023-05-16T16:49:31.293Z,1.40
2023-05-16T16:51:58.267Z,4.18
2023-05-16T16:54:25.507Z,1.35
2023-05-16T16:56:52.583Z,1.10
2023-05-16T16:59:19.682Z,1.23
2023-05-16T17:01:46.835Z,1.17
2023-05-16T17:04:13.863Z,1.30
2023-05-16T17:06:41.035Z,1.05
2023-05-16T17:09:13.603Z,1.23
2023-05-16T17:11:42.250Z,1.38
2023-05-16T17:14:10.802Z,1.38
2023-05-16T17:16:40.751Z,1.10
2023-05-16T17:19:09.010Z,1.20
2023-05-16T17:21:36.993Z,1.23
2023-05-16T17:24:04.901Z,1.30
2023-05-16T17:26:31.959Z,1.30
2023-05-16T17:29:03.938Z,1.40
2023-05-16T17:31:31.271Z,1.50
2023-05-16T17:33:58.335Z,1.60
2023-05-16T17:36:25.291Z,2.22
2023-05-16T17:38:52.282Z,1.70
2023-05-16T17:41:20.514Z,1.38
2023-05-16T17:43:47.820Z,2.22
2023-05-16T17:46:17.599Z,1.77
2023-05-16T17:48:44.607Z,1.75
2023-05-16T17:51:11.635Z,2.38
2023-05-16T17:53:38.669Z,2.03
2023-05-16T17:56:05.728Z,1.77
2023-05-16T17:58:32.678Z,1.77
2023-05-16T18:00:59.754Z,1.98
2023-05-16T18:03:26.710Z,1.90
2023-05-16T18:05:53.835Z,1.77
2023-05-16T18:08:21.049Z,2.00
2023-05-16T18:10:52.294Z,1.80
2023-05-16T18:13:20.510Z,2.17
2023-05-16T18:15:47.801Z,2.00
2023-05-16T18:18:14.773Z,2.28
2023-05-16T18:20:42.886Z,2.28
2023-05-16T18:23:09.936Z,2.05
2023-05-16T18:25:37.184Z,2.50
2023-05-16T18:28:04.551Z,2.20
2023-05-16T18:30:31.565Z,2.50
2023-05-16T18:32:59.489Z,2.25
2023-05-16T18:35:28.494Z,2.08
2023-05-16T18:37:55.737Z,2.30
2023-05-16T18:40:23.195Z,2.05
2023-05-16T18:42:50.918Z,2.40
2023-05-16T18:45:18.021Z,2.78
2023-05-16T18:47:45.093Z,2.90
2023-05-16T18:50:12.515Z,2.80
2023-05-16T18:55:08.440Z,3.38
2023-05-16T18:57:35.469Z,2.95
2023-05-16T19:00:02.451Z,3.13
2023-05-16T19:02:40.899Z,3.40
2023-05-16T19:05:09.110Z,3.55
2023-05-16T19:07:36.282Z,3.85
2023-05-16T19:10:04.289Z,3.80
2023-05-16T19:12:31.541Z,3.88
2023-05-16T19:14:58.507Z,3.50
2023-05-16T19:17:25.777Z,3.47
2023-05-16T19:19:53.177Z,3.83
2023-05-16T19:22:20.598Z,4.07
2023-05-16T19:24:47.553Z,3.67
2023-05-16T19:27:14.631Z,4.03
2023-05-16T19:29:41.564Z,3.67
2023-05-16T19:32:08.628Z,4.40
2023-05-16T19:34:35.754Z,4.30
2023-05-16T19:37:03.529Z,4.40
2023-05-16T19:39:32.184Z,3.73
2023-05-16T19:42:07.111Z,4.10
2023-05-16T19:44:35.403Z,4.10
2023-05-16T19:47:02.799Z,3.87
2023-05-16T19:49:34.603Z,3.73
2023-05-16T19:52:02.936Z,4.17
2023-05-16T19:54:30.329Z,4.60
2023-05-16T19:56:57.272Z,3.93
2023-05-16T19:59:24.252Z,4.37
2023-05-16T20:01:51.372Z,4.30
2023-05-16T20:04:18.517Z,4.60
2023-05-16T20:06:45.985Z,4.50
2023-05-16T20:09:13.061Z,4.57
2023-05-16T20:11:40.114Z,5.03
2023-05-16T20:14:07.134Z,5.20
2023-05-16T20:16:34.164Z,4.77
2023-05-16T20:19:01.274Z,5.17
2023-05-16T20:21:28.361Z,5.50
2023-05-16T20:23:55.437Z,5.43
2023-05-16T20:26:22.500Z,5.30
2023-05-16T20:28:49.538Z,5.93
2023-05-16T20:31:16.563Z,5.03
2023-05-16T20:33:43.520Z,5.80
2023-05-16T20:36:10.570Z,5.43
2023-05-16T20:38:38.865Z,5.90
2023-05-16T20:41:05.859Z,6.43
2023-05-16T20:43:32.920Z,6.00
2023-05-16T20:45:59.851Z,6.03
2023-05-16T20:48:27.088Z,5.93
2023-05-16T20:50:54.686Z,6.20
2023-05-16T20:53:24.533Z,6.40
2023-05-16T20:55:51.551Z,6.43
2023-05-16T20:58:18.542Z,5.50
2023-05-16T21:00:45.526Z,6.10
2023-05-16T21:03:12.537Z,6.00
2023-05-16T21:05:40.038Z,6.17
2023-05-16T21:08:07.278Z,5.70
2023-05-16T21:10:34.242Z,6.20
2023-05-16T21:13:01.245Z,5.30
2023-05-16T21:15:28.701Z,5.13
2023-05-16T21:17:56.992Z,4.73
2023-05-16T21:20:24.019Z,4.47
2023-05-16T21:22:51.092Z,3.90
2023-05-16T21:25:18.104Z,4.10
2023-05-16T21:27:45.052Z,3.77
2023-05-16T21:30:12.951Z,4.50
2023-05-16T21:32:39.919Z,4.23
2023-05-16T21:35:07.389Z,3.47
2023-05-16T21:37:34.656Z,3.07
2023-05-16T21:40:01.823Z,3.83
2023-05-16T21:42:28.819Z,3.77
2023-05-16T21:44:55.785Z,3.80
2023-05-16T21:47:23.174Z,3.30
2023-05-16T21:49:50.332Z,3.23
2023-05-16T21:52:17.351Z,3.77
2023-05-16T21:54:44.350Z,3.30
2023-05-16T21:57:11.300Z,3.57
2023-05-16T21:59:38.221Z,3.67
2023-05-16T22:02:05.465Z,3.47
2023-05-16T22:04:32.656Z,3.80
2023-05-16T22:06:59.623Z,3.33
2023-05-16T22:09:26.570Z,3.70
2023-05-16T22:11:53.604Z,3.77
2023-05-16T22:14:20.661Z,3.53
2023-05-16T22:16:47.622Z,3.90
2023-05-16T22:19:14.599Z,3.60
2023-05-16T22:21:41.629Z,3.43
2023-05-16T22:24:08.655Z,3.77
2023-05-16T22:26:35.742Z,4.00
2023-05-16T22:29:02.737Z,3.50
2023-05-16T22:31:29.659Z,3.50
2023-05-16T22:33:56.672Z,3.77
2023-05-16T22:36:23.698Z,3.50
2023-05-16T22:38:51.237Z,3.60
2023-05-16T22:41:18.223Z,3.73
2023-05-16T22:43:45.266Z,3.40
2023-05-16T22:46:12.344Z,3.27
2023-05-16T22:48:39.431Z,3.37
2023-05-16T22:51:06.594Z,3.70
2023-05-16T22:53:33.659Z,3.93
2023-05-16T22:56:00.728Z,3.63
2023-05-16T22:58:27.641Z,4.63
2023-05-16T23:00:54.591Z,4.23
2023-05-16T23:03:21.860Z,4.10
2023-05-16T23:05:48.946Z,4.40
2023-05-16T23:08:15.886Z,4.10
2023-05-16T23:10:42.847Z,4.00
2023-05-16T23:13:09.821Z,4.30
2023-05-16T23:15:36.727Z,3.93
2023-05-16T23:18:03.812Z,3.73
2023-05-16T23:20:30.822Z,3.80
2023-05-16T23:22:57.884Z,3.70
2023-05-16T23:25:24.887Z,4.30
2023-05-16T23:27:51.866Z,3.70
2023-05-16T23:30:18.894Z,3.87
2023-05-16T23:32:47.521Z,4.50
2023-05-16T23:35:14.464Z,3.90
2023-05-16T23:37:41.438Z,3.83
2023-05-16T23:40:09.375Z,3.87
2023-05-16T23:42:36.825Z,3.97
2023-05-16T23:45:04.899Z,3.50
2023-05-16T23:47:31.948Z,3.40
2023-05-16T23:49:59.026Z,3.33
2023-05-16T23:52:26.037Z,3.43
2023-05-16T23:54:52.994Z,3.53
2023-05-16T23:57:20.008Z,3.63
2023-05-16T23:59:46.923Z,4.03
